• Join FlightAware (Why Join?)
  • Login
  • US Flag 
02:52PM EDT


 

Airport Tracker/Info


-or-


 

Live Flight TrackerFlight Track Log ✈ N5253C ✈ 21-Apr-2013 ✈ I19 - KYIP

Flight Track Log - Related Links

Times and Time Zones

All times are in EDT time to prevent confusion due to time zone crossing. See the N5253C flight status page for this flight to view local times or setup timezone preferences in your user account.

Time Position Orientation Groundspeed Altitude Reporting Facility
EDT Latitude Longitude Course Direction KTS MPH feet Rate Location/Type
08:28PM 39.7569 -83.9350 North 93 107 4,700  Level Indianapolis Center
08:30PM 39.7886 -83.9311 North 94 108 5,500 420 Climbing Indianapolis Center
08:31PM 39.8206 -83.9269 North 127 146 5,600  Climbing Indianapolis Center
08:32PM 39.8544 -83.9203 North 123 142 5,600  Level Indianapolis Center
08:33PM 39.8883 -83.9167 North 121 139 5,600 -60 Level Indianapolis Center
08:34PM 39.9236 -83.9092 North 120 138 5,500  Descending Indianapolis Center
08:35PM 39.9561 -83.9061 North 124 143 5,600  Climbing Indianapolis Center
08:36PM 39.9903 -83.8997 North 121 139 5,600  Level Indianapolis Center
08:37PM 40.0242 -83.8931 North 121 139 5,600  Level Indianapolis Center
08:38PM 40.0581 -83.8894 North 116 133 5,600  Level Indianapolis Center
08:39PM 40.0897 -83.8853 North 115 132 5,600  Level Indianapolis Center
08:40PM 40.1175 -83.8778 12° North 115 132 5,600 -120 Level Indianapolis Center
08:40PM 40.1281 -83.8761 North 115 132 5,500  Descending Indianapolis Center
08:41PM 40.1514 -83.8742 North 115 132 5,600  Climbing Indianapolis Center
08:41PM 40.1603 -83.8719 11° North 115 132 5,500 -120 Descending Indianapolis Center
08:42PM 40.1922 -83.8664 North 114 131 5,500  Level Indianapolis Center
08:43PM 40.2192 -83.8636 North 116 133 5,600  Climbing Indianapolis Center
08:43PM 40.2250 -83.8614 16° North 115 132 5,500  Descending Indianapolis Center
08:44PM 40.2447 -83.8586 North 113 130 5,600  Climbing Indianapolis Center
08:44PM 40.2564 -83.8567 North 114 131 5,500 -120 Descending Indianapolis Center
08:45PM 40.2869 -83.8508 North 112 129 5,500  Level Indianapolis Center
08:46PM 40.3186 -83.8467 North 112 129 5,500  Level Indianapolis Center
08:47PM 40.3503 -83.8406 North 113 130 5,500  Level Indianapolis Center
08:48PM 40.3831 -83.8361 North 115 132 5,500  Level Indianapolis Center
08:49PM 40.4153 -83.8308 North 115 132 5,500  Level Indianapolis Center
08:50PM 40.4478 -83.8258 North 116 133 5,500  Level Indianapolis Center
08:51PM 40.4803 -83.8203 North 116 133 5,500  Level Indianapolis Center
08:52PM 40.5183 -83.8136 North 117 135 5,500  Level Indianapolis Center
08:53PM 40.5517 -83.8089 North 118 136 5,500  Level Indianapolis Center
08:54PM 40.5844 -83.8028 North 118 136 5,500  Level Indianapolis Center
08:55PM 40.6172 -83.7978 North 118 136 5,500  Level Indianapolis Center
08:56PM 40.6511 -83.7925 North 119 137 5,500  Level Indianapolis Center
08:57PM 40.6842 -83.7869 North 118 136 5,500 -60 Level Indianapolis Center
08:58PM 40.7178 -83.7822 North 120 138 5,400 -60 Descending Indianapolis Center
08:59PM 40.7497 -83.7756 North 117 135 5,400  Level Indianapolis Center
09:01PM 40.7828 -83.7700 North 117 135 5,400  Level Indianapolis Center
09:02PM 40.8203 -83.7644 North 115 132 5,400  Level Indianapolis Center
09:03PM 40.8528 -83.7589 North 115 132 5,400  Level Indianapolis Center
09:04PM 40.8836 -83.7539 North 112 129 5,400  Level Indianapolis Center
09:05PM 40.9200 -83.7483 North 112 129 5,400  Level Indianapolis Center
09:06PM 40.9511 -83.7431 North 112 129 5,400  Level Indianapolis Center
09:07PM 40.9828 -83.7383 North 112 129 5,400  Level Indianapolis Center
09:08PM 41.0139 -83.7331 North 112 129 5,400  Level Indianapolis Center
09:09PM 41.0453 -83.7283 North 113 130 5,400  Level Indianapolis Center
09:10PM 41.0758 -83.7225 North 112 129 5,500  Climbing Indianapolis Center
09:11PM 41.1069 -83.7172 North 113 130 5,500  Level Indianapolis Center